This is the latest recevied weather packets stored in our database for station/object GW1699. If no packets are shown the sender has not sent any weather packets the latest 10 day(s).
| Time | Temp. | Humidity | Pressure | Rain* | Wind** | Luminosity | Snow |
|---|---|---|---|---|---|---|---|
| 1777823677 | 10° C | 47% | 1017.9 hPa | 0 mm | - | - | - |
| 1777821138 | 8.89° C | 48% | 1018.2 hPa | 0 mm | - | - | - |
| 1777820790 | 8.89° C | 53% | 1018.2 hPa | 0 mm | - | - | - |
| 1777820078 | 8.89° C | 53% | 1017.9 hPa | 0 mm | - | - | - |
| 1777818641 | 8.33° C | 56% | 1018.2 hPa | 0 mm | - | - | - |
| 1777816828 | 7.22° C | 69% | 1018.2 hPa | 0 mm | - | - | - |
| 1777808179 | -1.11° C | 99% | 1017.6 hPa | 0 mm | - | - | - |
| 1777807091 | -1.67° C | 99% | 1017.6 hPa | 0 mm | - | - | - |
| 1777804936 | -1.67° C | 99% | 1016.9 hPa | 0 mm | - | - | - |
| 1777802774 | -1.67° C | 99% | 1016.5 hPa | 0 mm | - | - | - |
| 1777798814 | -1.11° C | 99% | 1016.2 hPa | 0 mm | - | - | - |
| 1777797760 | -1.11° C | 99% | 1016.2 hPa | 0 mm | - | - | - |
| 1777797038 | -1.11° C | 99% | 1016.2 hPa | 0 mm | - | - | - |
| 1777796692 | -1.11° C | 99% | 1016.2 hPa | 0 mm | - | - | - |
| 1777791984 | -0.56° C | 99% | 1015.5 hPa | 0 mm | - | - | - |
| 1777789092 | 0° C | 98% | 1015.5 hPa | 0 mm | - | - | - |
| 1777786957 | 0.56° C | 97% | 1015.9 hPa | 0 mm | - | - | - |
| 1777786583 | 0.56° C | 97% | 1015.5 hPa | 0 mm | - | - | - |
| 1777786251 | 0.56° C | 97% | 1015.5 hPa | 0 mm | - | - | - |
| 1777785535 | 0.56° C | 96% | 1015.5 hPa | 0 mm | - | - | - |
| 1777783725 | 1.11° C | 94% | 1015.5 hPa | 0 mm | - | - | - |
| 1777783362 | 1.11° C | 94% | 1015.5 hPa | 0 mm | - | - | - |
| 1777782283 | 1.67° C | 93% | 1015.5 hPa | 0 mm | - | - | - |
| 1777781903 | 1.67° C | 92% | 1015.5 hPa | 0 mm | - | - | - |
| 1777781183 | 2.22° C | 90% | 1015.5 hPa | 0 mm | - | - | - |
* Rain since midnight (hover to see other rain measurements)
** Current wind speed in m/s (hover to see current wind gust speed)